PWSweather.com
Personal Weather Stations
Station Observations

VallonFR

Lat: 44.407452, Lon: 4.395400999999993

Elevation: 150

Station Type: Oregon

http://meteo07150.alwaysdata.net/meteo/

Latest ConditionsUpdated 2:20:05 AM GMT+01:01 Thursday, Jan 17, 2019
Currently Today's Max Today's Min Today's Average
Temperature 41.1°F5.1°C 41.5°F5.3°C 41.1°F5.1°C 41.3°F5.2°C
Dew Point 36.4°F2.4°C 36.5°F2.5°C 34.8°F1.6°C 35.6°F2.0°C
Winds Calm Calm 5.6 mph -9.0 kmh - - 1.0 mph 1.6 kmh
Wind Gusts -- 5.6 mph9.0 kmh - -
Humidity 83% 83% 78% 80%
Pressure 29.99 in1015.6 mb 30.02 in1016.6 mb 29.99 in1015.6 mb -
Precipitation - 0.04 in1.0 mm - -
Hour Temp Dew Point Humidity Winds Wind Gusts Pressure Precip Precip Rate Daily Precip Total
02:20 AM 41.1°F5.1°C 36.4°F2.4°C 83% Calm Calm -- 29.99 in1015.6 mb 0.08 in2.0 mm 0.48 in12.2 mm 0.04 in1.0 mm
02:15 AM 41.3°F5.2°C 36.5°F2.5°C 83% Calm Calm -- 29.99 in1015.6 mb 0.04 in1.0 mm 0.00 in0.0 mm 0.04 in1.0 mm
02:10 AM 41.3°F5.2°C 36.5°F2.5°C 83% Calm Calm -- 29.99 in1015.6 mb 0.04 in1.0 mm 0.00 in0.0 mm 0.04 in1.0 mm
02:05 AM 41.1°F5.1°C 36.1°F2.3°C 82% Calm Calm -- 29.99 in1015.6 mb 0.04 in1.0 mm 0.00 in0.0 mm 0.04 in1.0 mm
02:00 AM 41.1°F5.1°C 36.1°F2.3°C 82% Calm Calm -- 29.99 in1015.6 mb 0.04 in1.0 mm 0.00 in0.0 mm 0.04 in1.0 mm
01:55 AM 41.3°F5.2°C 36.2°F2.3°C 82% Calm Calm -- 29.99 in1015.6 mb 0.04 in1.0 mm 0.00 in0.0 mm 0.04 in1.0 mm
01:50 AM 41.1°F5.1°C 36.1°F2.3°C 82% Calm Calm -- 29.99 in1015.6 mb 0.04 in1.0 mm 0.00 in0.0 mm 0.04 in1.0 mm
01:45 AM 41.1°F5.1°C 35.7°F2.1°C 81% Calm Calm -- 29.99 in1015.6 mb 0.04 in1.0 mm 0.48 in12.2 mm 0.04 in1.0 mm
01:40 AM 41.3°F5.2°C 35.9°F2.2°C 81% Calm Calm -- 30.02 in1016.6 mb 0.00 in0.0 mm 0.00 in0.0 mm 0.00 in0.0 mm
01:35 AM 41.3°F5.2°C 35.9°F2.2°C 81% Calm Calm -- 30.02 in1016.6 mb 0.00 in0.0 mm 0.00 in0.0 mm 0.00 in0.0 mm
01:30 AM 41.3°F5.2°C 35.9°F2.2°C 81% Calm Calm -- 30.02 in1016.6 mb 0.00 in0.0 mm 0.00 in0.0 mm 0.00 in0.0 mm
01:25 AM 41.1°F5.1°C 35.4°F1.9°C 80% 4.0 mph NNW6.4 kmh NNW 4.7 mph7.6 kmh 30.02 in1016.6 mb 0.00 in0.0 mm 0.00 in0.0 mm 0.00 in0.0 mm
01:20 AM 41.3°F5.2°C 35.6°F2.0°C 80% Calm Calm 4.7 mph7.6 kmh 30.02 in1016.6 mb 0.00 in0.0 mm 0.00 in0.0 mm 0.00 in0.0 mm
01:15 AM 41.3°F5.2°C 35.6°F2.0°C 80% Calm Calm -- 30.02 in1016.6 mb 0.00 in0.0 mm 0.00 in0.0 mm 0.00 in0.0 mm
01:10 AM 41.1°F5.1°C 35.4°F1.9°C 80% Calm Calm 3.6 mph5.8 kmh 30.02 in1016.6 mb 0.00 in0.0 mm 0.00 in0.0 mm 0.00 in0.0 mm
01:05 AM 41.1°F5.1°C 35.4°F1.9°C 80% 3.4 mph 5.5 kmh 3.4 mph5.5 kmh 30.02 in1016.6 mb 0.00 in0.0 mm 0.00 in0.0 mm 0.00 in0.0 mm
01:00 AM 41.1°F5.1°C 35.4°F1.9°C 80% 3.8 mph 6.1 kmh 4.3 mph6.9 kmh 30.02 in1016.6 mb 0.00 in0.0 mm 0.00 in0.0 mm 0.00 in0.0 mm
12:55 AM 41.1°F5.1°C 35.1°F1.7°C 79% Calm Calm 4.3 mph6.9 kmh 30.02 in1016.6 mb 0.00 in0.0 mm 0.00 in0.0 mm 0.00 in0.0 mm
12:50 AM 41.1°F5.1°C 35.1°F1.7°C 79% Calm Calm 5.6 mph9.0 kmh 30.02 in1016.6 mb 0.00 in0.0 mm 0.00 in0.0 mm 0.00 in0.0 mm
12:45 AM 41.1°F5.1°C 35.1°F1.7°C 79% 5.6 mph NNW9.0 kmh NNW 5.6 mph9.0 kmh 30.02 in1016.6 mb 0.00 in0.0 mm 0.00 in0.0 mm 0.00 in0.0 mm
12:40 AM 41.1°F5.1°C 34.8°F1.6°C 78% 4.3 mph 6.9 kmh 5.4 mph8.7 kmh 30.02 in1016.6 mb 0.00 in0.0 mm 0.00 in0.0 mm 0.00 in0.0 mm
12:35 AM 41.3°F5.2°C 35.0°F1.7°C 78% Calm Calm 1.3 mph2.1 kmh 30.02 in1016.6 mb 0.00 in0.0 mm 0.00 in0.0 mm 0.00 in0.0 mm
12:30 AM 41.5°F5.3°C 35.5°F1.9°C 79% 1.3 mph 2.1 kmh 3.8 mph6.1 kmh 30.02 in1016.6 mb 0.00 in0.0 mm 0.00 in0.0 mm 0.00 in0.0 mm
12:25 AM 41.5°F5.3°C 35.5°F1.9°C 79% 3.8 mph 6.1 kmh 3.8 mph6.1 kmh 30.02 in1016.6 mb 0.00 in0.0 mm 0.00 in0.0 mm 0.00 in0.0 mm
12:20 AM 41.5°F5.3°C 35.5°F1.9°C 79% 3.1 mph 5.0 kmh 3.1 mph5.0 kmh 30.02 in1016.6 mb 0.00 in0.0 mm 0.00 in0.0 mm 0.00 in0.0 mm
12:15 AM 41.5°F5.3°C 35.5°F1.9°C 79% Calm Calm -- 30.02 in1016.6 mb 0.00 in0.0 mm 0.00 in0.0 mm 0.00 in0.0 mm
12:10 AM 41.5°F5.3°C 35.1°F1.7°C 78% Calm Calm -- 30.02 in1016.6 mb 0.00 in0.0 mm 0.00 in0.0 mm 0.00 in0.0 mm
12:05 AM 41.3°F5.2°C 35.0°F1.7°C 78% Calm Calm -- 30.02 in1016.6 mb 0.00 in0.0 mm 0.00 in0.0 mm 0.00 in0.0 mm
12:00 AM 41.5°F5.3°C 35.1°F1.7°C 78% Calm Calm -- 30.02 in1016.6 mb 0.00 in0.0 mm 0.00 in0.0 mm 0.00 in0.0 mm